メインページ
METAR-TAF:

METAR-TAF

空港 :

ティミンズ, オンタリオ州, カナダ

緯度: 48-34N, 経度: 081-22W, 海抜: 295m

現時点の気象観測

当レポートは31分前の00:00(UTC)に作成
西/北西の風 7kt、最大15ktの突風を伴う、西から北西の間で変化する
気温 26°C
湿度 48%
気圧 1007 hPa
視程: 24.1km
高度6000ftの雲は散在している
高度26000ftの千切れ雲あり

METAR: CYTS 170000Z 29007G15KT 260V320 15SM SCT060 BKN260 26/14 A2973 RMK CU4CI3 SLP067 DENSITY ALT 2700FT

時間: 20:31 (00:31 UTC)

予報

当レポートは4時間53分前の19:38(UTC)に作成
予報は16日の 20時(UTC)から 17日の 08時(UTC)まで有効
西/南西の風 15kt、最大25ktの突風を伴う
視程: 10km
高度5000ftの千切れ雲あり
16日の 21時(UTC)から 16日の 23時(UTC)まで徐々に
北西の風 12kt、最大22ktの突風を伴う
17日の 0200時(UTC)から
北/北西の風 6kt
視程: 10km
高度5000ftの雲はほとんどない

TAF: CYTS 161938Z 1620/1708 25015G25KT P6SM BKN050 BECMG 1621/1623 32012G22KT FM170200 34006KT P6SM FEW050 RMK NXT FCST BY 170200Z

4,000以上の空港の気象観測と天気予報(METAR報とTAF報)

利用可能な観測所は地図上に黄色い丸と赤い丸で示す。

丸の上にカーソルを重ねると観測所名を参照できる。

次にクリックすると気象観測と天気予報を参照できる。

マップの切り替え:黒色「×」印の緑ボタンをクリックして拡大、「-」印の緑ボタンをクリックして縮小、緑色の三角印をクリックして隣りの地図に切り替え


METAR-TAF: